sensor_id;sensor_type;location;lat;lon;timestamp;P1;durP1;ratioP1;P2;durP2;ratioP2
24421;SDS011;12600;53.326;-6.298;2023-11-22T00:02:37;9.65;;;3.40;;
24421;SDS011;12600;53.326;-6.298;2023-11-22T00:05:28;7.43;;;3.22;;
24421;SDS011;12600;53.326;-6.298;2023-11-22T00:08:17;9.38;;;3.45;;
24421;SDS011;12600;53.326;-6.298;2023-11-22T00:11:07;9.13;;;3.15;;
24421;SDS011;12600;53.326;-6.298;2023-11-22T00:13:56;10.45;;;3.58;;
24421;SDS011;12600;53.326;-6.298;2023-11-22T00:16:46;12.32;;;3.60;;
24421;SDS011;12600;53.326;-6.298;2023-11-22T00:19:35;11.75;;;3.60;;
24421;SDS011;12600;53.326;-6.298;2023-11-22T00:22:27;8.88;;;3.78;;
24421;SDS011;12600;53.326;-6.298;2023-11-22T00:25:19;9.85;;;3.85;;
24421;SDS011;12600;53.326;-6.298;2023-11-22T00:28:08;13.73;;;4.20;;
24421;SDS011;12600;53.326;-6.298;2023-11-22T00:30:58;8.80;;;3.28;;
24421;SDS011;12600;53.326;-6.298;2023-11-22T00:33:48;10.93;;;4.60;;
24421;SDS011;12600;53.326;-6.298;2023-11-22T00:36:37;12.10;;;3.65;;
24421;SDS011;12600;53.326;-6.298;2023-11-22T00:39:29;10.32;;;3.17;;
24421;SDS011;12600;53.326;-6.298;2023-11-22T00:42:19;8.18;;;3.33;;
24421;SDS011;12600;53.326;-6.298;2023-11-22T00:45:08;8.65;;;2.92;;
24421;SDS011;12600;53.326;-6.298;2023-11-22T00:47:58;7.85;;;3.50;;
24421;SDS011;12600;53.326;-6.298;2023-11-22T00:50:48;7.45;;;3.15;;
24421;SDS011;12600;53.326;-6.298;2023-11-22T00:53:38;12.43;;;4.25;;
24421;SDS011;12600;53.326;-6.298;2023-11-22T00:56:29;7.90;;;3.63;;
24421;SDS011;12600;53.326;-6.298;2023-11-22T00:59:19;8.52;;;3.83;;
24421;SDS011;12600;53.326;-6.298;2023-11-22T01:02:08;9.10;;;3.92;;
24421;SDS011;12600;53.326;-6.298;2023-11-22T01:04:58;10.85;;;3.83;;
24421;SDS011;12600;53.326;-6.298;2023-11-22T01:07:48;9.25;;;3.92;;
24421;SDS011;12600;53.326;-6.298;2023-11-22T01:10:38;10.35;;;4.63;;
24421;SDS011;12600;53.326;-6.298;2023-11-22T01:13:29;14.30;;;5.13;;
24421;SDS011;12600;53.326;-6.298;2023-11-22T01:16:18;10.55;;;4.85;;
24421;SDS011;12600;53.326;-6.298;2023-11-22T01:19:09;8.40;;;3.70;;
24421;SDS011;12600;53.326;-6.298;2023-11-22T01:21:58;9.90;;;4.65;;
24421;SDS011;12600;53.326;-6.298;2023-11-22T01:24:48;6.82;;;3.80;;
24421;SDS011;12600;53.326;-6.298;2023-11-22T01:27:37;9.40;;;3.63;;
24421;SDS011;12600;53.326;-6.298;2023-11-22T01:30:28;12.40;;;3.28;;
24421;SDS011;12600;53.326;-6.298;2023-11-22T01:33:19;6.38;;;3.38;;
24421;SDS011;12600;53.326;-6.298;2023-11-22T01:36:08;7.90;;;3.88;;
24421;SDS011;12600;53.326;-6.298;2023-11-22T01:38:57;9.13;;;4.15;;
24421;SDS011;12600;53.326;-6.298;2023-11-22T01:41:47;6.18;;;3.33;;
24421;SDS011;12600;53.326;-6.298;2023-11-22T01:44:37;6.95;;;3.88;;
24421;SDS011;12600;53.326;-6.298;2023-11-22T01:47:27;11.23;;;3.67;;
24421;SDS011;12600;53.326;-6.298;2023-11-22T01:50:18;8.30;;;3.63;;
24421;SDS011;12600;53.326;-6.298;2023-11-22T01:53:08;10.68;;;4.25;;
24421;SDS011;12600;53.326;-6.298;2023-11-22T01:56:00;7.33;;;3.63;;
24421;SDS011;12600;53.326;-6.298;2023-11-22T01:58:50;7.53;;;4.03;;
24421;SDS011;12600;53.326;-6.298;2023-11-22T02:01:42;9.32;;;3.20;;
24421;SDS011;12600;53.326;-6.298;2023-11-22T02:04:34;7.75;;;3.97;;
24421;SDS011;12600;53.326;-6.298;2023-11-22T02:07:24;9.35;;;4.10;;
24421;SDS011;12600;53.326;-6.298;2023-11-22T02:10:15;9.43;;;4.00;;
24421;SDS011;12600;53.326;-6.298;2023-11-22T02:13:05;7.60;;;4.15;;
24421;SDS011;12600;53.326;-6.298;2023-11-22T02:15:55;8.43;;;4.30;;
24421;SDS011;12600;53.326;-6.298;2023-11-22T02:18:46;9.45;;;4.25;;
24421;SDS011;12600;53.326;-6.298;2023-11-22T02:21:38;10.43;;;4.28;;
24421;SDS011;12600;53.326;-6.298;2023-11-22T02:24:29;11.38;;;5.00;;
24421;SDS011;12600;53.326;-6.298;2023-11-22T02:27:20;8.82;;;3.33;;
24421;SDS011;12600;53.326;-6.298;2023-11-22T02:30:10;7.55;;;3.60;;
24421;SDS011;12600;53.326;-6.298;2023-11-22T02:33:00;7.88;;;3.40;;
24421;SDS011;12600;53.326;-6.298;2023-11-22T02:35:49;8.98;;;3.47;;
24421;SDS011;12600;53.326;-6.298;2023-11-22T02:38:38;6.78;;;3.05;;
24421;SDS011;12600;53.326;-6.298;2023-11-22T02:41:30;6.72;;;3.00;;
24421;SDS011;12600;53.326;-6.298;2023-11-22T02:44:20;5.28;;;2.95;;
24421;SDS011;12600;53.326;-6.298;2023-11-22T02:47:10;7.07;;;3.13;;
24421;SDS011;12600;53.326;-6.298;2023-11-22T02:50:00;5.93;;;3.40;;
24421;SDS011;12600;53.326;-6.298;2023-11-22T02:52:52;8.75;;;3.80;;
24421;SDS011;12600;53.326;-6.298;2023-11-22T02:55:41;8.40;;;4.13;;
24421;SDS011;12600;53.326;-6.298;2023-11-22T02:58:32;10.23;;;3.60;;
24421;SDS011;12600;53.326;-6.298;2023-11-22T03:01:22;5.10;;;3.22;;
24421;SDS011;12600;53.326;-6.298;2023-11-22T03:04:11;6.30;;;3.05;;
24421;SDS011;12600;53.326;-6.298;2023-11-22T03:07:01;5.68;;;3.20;;
24421;SDS011;12600;53.326;-6.298;2023-11-22T03:09:50;6.22;;;3.50;;
24421;SDS011;12600;53.326;-6.298;2023-11-22T03:12:40;9.20;;;3.92;;
24421;SDS011;12600;53.326;-6.298;2023-11-22T03:15:31;5.13;;;3.17;;
24421;SDS011;12600;53.326;-6.298;2023-11-22T03:18:20;6.38;;;2.72;;
24421;SDS011;12600;53.326;-6.298;2023-11-22T03:21:09;5.18;;;3.00;;
24421;SDS011;12600;53.326;-6.298;2023-11-22T03:23:59;5.80;;;3.40;;
24421;SDS011;12600;53.326;-6.298;2023-11-22T03:26:51;4.85;;;2.85;;
24421;SDS011;12600;53.326;-6.298;2023-11-22T03:29:41;5.78;;;3.10;;
24421;SDS011;12600;53.326;-6.298;2023-11-22T03:32:32;5.45;;;3.13;;
24421;SDS011;12600;53.326;-6.298;2023-11-22T03:35:24;4.20;;;2.63;;
24421;SDS011;12600;53.326;-6.298;2023-11-22T03:38:13;5.07;;;2.80;;
24421;SDS011;12600;53.326;-6.298;2023-11-22T03:41:03;5.07;;;2.50;;
24421;SDS011;12600;53.326;-6.298;2023-11-22T03:43:53;6.20;;;2.63;;
24421;SDS011;12600;53.326;-6.298;2023-11-22T03:46:43;3.60;;;2.50;;
24421;SDS011;12600;53.326;-6.298;2023-11-22T03:49:34;5.95;;;3.35;;
24421;SDS011;12600;53.326;-6.298;2023-11-22T03:52:23;5.55;;;2.80;;
24421;SDS011;12600;53.326;-6.298;2023-11-22T03:55:14;7.35;;;3.08;;
24421;SDS011;12600;53.326;-6.298;2023-11-22T03:58:03;6.40;;;3.25;;
24421;SDS011;12600;53.326;-6.298;2023-11-22T04:00:53;4.22;;;2.58;;
24421;SDS011;12600;53.326;-6.298;2023-11-22T04:03:42;4.97;;;3.20;;
24421;SDS011;12600;53.326;-6.298;2023-11-22T04:06:33;3.70;;;2.22;;
24421;SDS011;12600;53.326;-6.298;2023-11-22T04:09:22;6.90;;;2.60;;
24421;SDS011;12600;53.326;-6.298;2023-11-22T04:12:12;3.53;;;2.08;;
24421;SDS011;12600;53.326;-6.298;2023-11-22T04:15:01;3.92;;;2.30;;
24421;SDS011;12600;53.326;-6.298;2023-11-22T04:17:51;5.88;;;2.58;;
24421;SDS011;12600;53.326;-6.298;2023-11-22T04:20:42;5.30;;;2.60;;
24421;SDS011;12600;53.326;-6.298;2023-11-22T04:23:33;4.75;;;2.70;;
24421;SDS011;12600;53.326;-6.298;2023-11-22T04:26:23;6.07;;;2.42;;
24421;SDS011;12600;53.326;-6.298;2023-11-22T04:29:13;4.05;;;2.45;;
24421;SDS011;12600;53.326;-6.298;2023-11-22T04:32:04;4.57;;;2.08;;
24421;SDS011;12600;53.326;-6.298;2023-11-22T04:34:55;5.00;;;1.35;;
24421;SDS011;12600;53.326;-6.298;2023-11-22T04:37:45;4.05;;;2.40;;
24421;SDS011;12600;53.326;-6.298;2023-11-22T04:40:36;3.92;;;1.92;;
24421;SDS011;12600;53.326;-6.298;2023-11-22T04:43:26;3.90;;;2.00;;
24421;SDS011;12600;53.326;-6.298;2023-11-22T04:46:15;2.60;;;1.80;;
24421;SDS011;12600;53.326;-6.298;2023-11-22T04:49:04;4.53;;;1.67;;
24421;SDS011;12600;53.326;-6.298;2023-11-22T04:51:54;2.15;;;1.30;;
24421;SDS011;12600;53.326;-6.298;2023-11-22T04:54:44;4.60;;;1.50;;
24421;SDS011;12600;53.326;-6.298;2023-11-22T04:57:35;4.30;;;1.20;;
24421;SDS011;12600;53.326;-6.298;2023-11-22T05:00:24;2.78;;;1.02;;
24421;SDS011;12600;53.326;-6.298;2023-11-22T05:03:13;4.78;;;1.10;;
24421;SDS011;12600;53.326;-6.298;2023-11-22T05:06:03;2.55;;;0.93;;
24421;SDS011;12600;53.326;-6.298;2023-11-22T05:08:54;3.60;;;0.90;;
24421;SDS011;12600;53.326;-6.298;2023-11-22T05:11:43;4.28;;;1.27;;
24421;SDS011;12600;53.326;-6.298;2023-11-22T05:14:34;1.98;;;1.10;;
24421;SDS011;12600;53.326;-6.298;2023-11-22T05:17:24;1.92;;;1.00;;
24421;SDS011;12600;53.326;-6.298;2023-11-22T05:20:13;2.53;;;1.13;;
24421;SDS011;12600;53.326;-6.298;2023-11-22T05:23:03;2.70;;;1.30;;
24421;SDS011;12600;53.326;-6.298;2023-11-22T05:25:52;4.13;;;1.13;;
24421;SDS011;12600;53.326;-6.298;2023-11-22T05:28:42;5.88;;;1.15;;
24421;SDS011;12600;53.326;-6.298;2023-11-22T05:31:32;2.67;;;1.40;;
24421;SDS011;12600;53.326;-6.298;2023-11-22T05:34:22;4.88;;;1.50;;
24421;SDS011;12600;53.326;-6.298;2023-11-22T05:37:11;2.55;;;0.90;;
24421;SDS011;12600;53.326;-6.298;2023-11-22T05:40:01;5.18;;;1.25;;
24421;SDS011;12600;53.326;-6.298;2023-11-22T05:42:52;5.20;;;1.65;;
24421;SDS011;12600;53.326;-6.298;2023-11-22T05:45:41;5.65;;;1.30;;
24421;SDS011;12600;53.326;-6.298;2023-11-22T05:48:32;4.22;;;1.20;;
24421;SDS011;12600;53.326;-6.298;2023-11-22T05:51:22;4.20;;;1.33;;
24421;SDS011;12600;53.326;-6.298;2023-11-22T05:54:11;3.85;;;1.90;;
24421;SDS011;12600;53.326;-6.298;2023-11-22T05:57:03;4.85;;;1.40;;
24421;SDS011;12600;53.326;-6.298;2023-11-22T05:59:53;4.88;;;1.67;;
24421;SDS011;12600;53.326;-6.298;2023-11-22T06:02:42;3.22;;;1.40;;
24421;SDS011;12600;53.326;-6.298;2023-11-22T06:05:33;6.07;;;1.92;;
24421;SDS011;12600;53.326;-6.298;2023-11-22T06:08:23;6.13;;;2.15;;
24421;SDS011;12600;53.326;-6.298;2023-11-22T06:11:12;5.55;;;2.15;;
24421;SDS011;12600;53.326;-6.298;2023-11-22T06:14:02;8.80;;;2.00;;
24421;SDS011;12600;53.326;-6.298;2023-11-22T06:16:51;4.72;;;1.40;;
24421;SDS011;12600;53.326;-6.298;2023-11-22T06:19:41;3.67;;;1.50;;
24421;SDS011;12600;53.326;-6.298;2023-11-22T06:22:31;3.35;;;1.55;;
24421;SDS011;12600;53.326;-6.298;2023-11-22T06:25:21;6.25;;;1.73;;
24421;SDS011;12600;53.326;-6.298;2023-11-22T06:28:10;6.35;;;2.10;;
24421;SDS011;12600;53.326;-6.298;2023-11-22T06:31:00;5.15;;;1.50;;
24421;SDS011;12600;53.326;-6.298;2023-11-22T06:33:50;5.57;;;1.48;;
24421;SDS011;12600;53.326;-6.298;2023-11-22T06:36:40;5.00;;;2.00;;
24421;SDS011;12600;53.326;-6.298;2023-11-22T06:39:31;5.07;;;2.10;;
24421;SDS011;12600;53.326;-6.298;2023-11-22T06:42:21;8.15;;;1.95;;
24421;SDS011;12600;53.326;-6.298;2023-11-22T06:45:10;4.40;;;1.52;;
24421;SDS011;12600;53.326;-6.298;2023-11-22T06:48:00;6.07;;;2.08;;
24421;SDS011;12600;53.326;-6.298;2023-11-22T06:50:50;6.75;;;2.40;;
24421;SDS011;12600;53.326;-6.298;2023-11-22T06:53:39;6.15;;;1.70;;
24421;SDS011;12600;53.326;-6.298;2023-11-22T06:56:30;6.35;;;1.90;;
24421;SDS011;12600;53.326;-6.298;2023-11-22T06:59:20;5.55;;;2.28;;
24421;SDS011;12600;53.326;-6.298;2023-11-22T07:02:09;6.47;;;1.98;;
24421;SDS011;12600;53.326;-6.298;2023-11-22T07:04:58;8.05;;;2.35;;
24421;SDS011;12600;53.326;-6.298;2023-11-22T07:07:48;7.25;;;2.28;;
24421;SDS011;12600;53.326;-6.298;2023-11-22T07:10:37;11.27;;;2.88;;
24421;SDS011;12600;53.326;-6.298;2023-11-22T07:13:29;7.00;;;2.47;;
24421;SDS011;12600;53.326;-6.298;2023-11-22T07:16:18;9.75;;;2.92;;
24421;SDS011;12600;53.326;-6.298;2023-11-22T07:19:08;7.28;;;2.45;;
24421;SDS011;12600;53.326;-6.298;2023-11-22T07:21:59;9.45;;;2.50;;
24421;SDS011;12600;53.326;-6.298;2023-11-22T07:24:51;5.88;;;2.42;;
24421;SDS011;12600;53.326;-6.298;2023-11-22T07:27:41;12.75;;;3.90;;
24421;SDS011;12600;53.326;-6.298;2023-11-22T07:30:32;14.88;;;5.47;;
24421;SDS011;12600;53.326;-6.298;2023-11-22T07:33:21;13.52;;;5.20;;
24421;SDS011;12600;53.326;-6.298;2023-11-22T07:36:13;11.40;;;3.63;;
24421;SDS011;12600;53.326;-6.298;2023-11-22T07:39:03;10.95;;;4.00;;
24421;SDS011;12600;53.326;-6.298;2023-11-22T07:41:52;15.85;;;4.95;;
24421;SDS011;12600;53.326;-6.298;2023-11-22T07:44:42;19.85;;;5.57;;
24421;SDS011;12600;53.326;-6.298;2023-11-22T07:47:33;14.77;;;4.80;;
24421;SDS011;12600;53.326;-6.298;2023-11-22T07:50:22;12.77;;;4.20;;
24421;SDS011;12600;53.326;-6.298;2023-11-22T07:53:12;10.38;;;3.63;;
24421;SDS011;12600;53.326;-6.298;2023-11-22T07:56:02;10.82;;;3.78;;
24421;SDS011;12600;53.326;-6.298;2023-11-22T07:58:52;11.30;;;4.32;;
24421;SDS011;12600;53.326;-6.298;2023-11-22T08:01:42;11.85;;;3.70;;
24421;SDS011;12600;53.326;-6.298;2023-11-22T08:04:33;9.75;;;2.65;;
24421;SDS011;12600;53.326;-6.298;2023-11-22T08:07:22;9.95;;;3.03;;
24421;SDS011;12600;53.326;-6.298;2023-11-22T08:10:13;12.18;;;3.30;;
24421;SDS011;12600;53.326;-6.298;2023-11-22T08:13:07;13.75;;;2.85;;
24421;SDS011;12600;53.326;-6.298;2023-11-22T08:15:56;9.55;;;2.72;;
24421;SDS011;12600;53.326;-6.298;2023-11-22T08:18:46;8.05;;;2.80;;
24421;SDS011;12600;53.326;-6.298;2023-11-22T08:21:37;11.48;;;3.45;;
24421;SDS011;12600;53.326;-6.298;2023-11-22T08:24:27;9.25;;;3.00;;
24421;SDS011;12600;53.326;-6.298;2023-11-22T08:27:16;10.40;;;3.40;;
24421;SDS011;12600;53.326;-6.298;2023-11-22T08:30:06;7.97;;;2.47;;
24421;SDS011;12600;53.326;-6.298;2023-11-22T08:33:00;19.27;;;3.72;;
24421;SDS011;12600;53.326;-6.298;2023-11-22T08:35:50;12.32;;;2.67;;
24421;SDS011;12600;53.326;-6.298;2023-11-22T08:38:46;6.75;;;2.58;;
24421;SDS011;12600;53.326;-6.298;2023-11-22T08:41:36;9.77;;;2.90;;
24421;SDS011;12600;53.326;-6.298;2023-11-22T08:44:25;7.13;;;2.72;;
24421;SDS011;12600;53.326;-6.298;2023-11-22T08:47:14;15.48;;;3.58;;
24421;SDS011;12600;53.326;-6.298;2023-11-22T08:50:06;8.10;;;3.10;;
24421;SDS011;12600;53.326;-6.298;2023-11-22T08:52:58;7.32;;;2.65;;
24421;SDS011;12600;53.326;-6.298;2023-11-22T08:55:49;7.13;;;3.13;;
24421;SDS011;12600;53.326;-6.298;2023-11-22T08:58:40;10.00;;;2.80;;
24421;SDS011;12600;53.326;-6.298;2023-11-22T09:01:30;13.43;;;2.90;;
24421;SDS011;12600;53.326;-6.298;2023-11-22T09:04:19;11.85;;;3.13;;
24421;SDS011;12600;53.326;-6.298;2023-11-22T09:07:11;8.50;;;3.40;;
24421;SDS011;12600;53.326;-6.298;2023-11-22T09:10:02;6.90;;;2.63;;
24421;SDS011;12600;53.326;-6.298;2023-11-22T09:12:59;7.43;;;2.30;;
24421;SDS011;12600;53.326;-6.298;2023-11-22T09:15:48;8.68;;;2.45;;
24421;SDS011;12600;53.326;-6.298;2023-11-22T09:18:38;5.63;;;2.05;;
24421;SDS011;12600;53.326;-6.298;2023-11-22T09:21:27;7.18;;;1.98;;
24421;SDS011;12600;53.326;-6.298;2023-11-22T09:24:17;5.95;;;2.25;;
24421;SDS011;12600;53.326;-6.298;2023-11-22T09:27:06;6.03;;;2.40;;
24421;SDS011;12600;53.326;-6.298;2023-11-22T09:29:59;6.70;;;3.00;;
24421;SDS011;12600;53.326;-6.298;2023-11-22T09:32:48;11.05;;;3.15;;
24421;SDS011;12600;53.326;-6.298;2023-11-22T09:35:38;10.63;;;3.10;;
24421;SDS011;12600;53.326;-6.298;2023-11-22T09:38:28;9.45;;;3.40;;
24421;SDS011;12600;53.326;-6.298;2023-11-22T09:41:17;7.30;;;3.03;;
24421;SDS011;12600;53.326;-6.298;2023-11-22T09:44:08;7.85;;;3.30;;
24421;SDS011;12600;53.326;-6.298;2023-11-22T09:46:59;4.35;;;2.08;;
24421;SDS011;12600;53.326;-6.298;2023-11-22T09:49:50;7.93;;;2.35;;
24421;SDS011;12600;53.326;-6.298;2023-11-22T09:52:44;2.35;;;1.30;;
24421;SDS011;12600;53.326;-6.298;2023-11-22T09:55:38;5.38;;;1.88;;
24421;SDS011;12600;53.326;-6.298;2023-11-22T10:01:22;8.75;;;2.08;;
24421;SDS011;12600;53.326;-6.298;2023-11-22T10:04:13;4.70;;;1.67;;
24421;SDS011;12600;53.326;-6.298;2023-11-22T10:07:03;4.00;;;1.55;;
24421;SDS011;12600;53.326;-6.298;2023-11-22T10:09:53;3.03;;;1.60;;
24421;SDS011;12600;53.326;-6.298;2023-11-22T10:12:44;3.90;;;1.70;;
24421;SDS011;12600;53.326;-6.298;2023-11-22T10:15:34;4.25;;;1.90;;
24421;SDS011;12600;53.326;-6.298;2023-11-22T10:18:23;3.67;;;1.40;;
24421;SDS011;12600;53.326;-6.298;2023-11-22T10:21:21;4.55;;;1.80;;
24421;SDS011;12600;53.326;-6.298;2023-11-22T10:24:13;2.92;;;1.55;;
24421;SDS011;12600;53.326;-6.298;2023-11-22T10:27:09;5.88;;;1.33;;
24421;SDS011;12600;53.326;-6.298;2023-11-22T10:29:59;2.55;;;1.08;;
24421;SDS011;12600;53.326;-6.298;2023-11-22T10:32:50;4.78;;;1.30;;
24421;SDS011;12600;53.326;-6.298;2023-11-22T10:35:42;4.22;;;1.63;;
24421;SDS011;12600;53.326;-6.298;2023-11-22T10:38:33;5.30;;;1.38;;
24421;SDS011;12600;53.326;-6.298;2023-11-22T10:41:24;4.70;;;1.70;;
24421;SDS011;12600;53.326;-6.298;2023-11-22T10:44:13;6.07;;;2.63;;
24421;SDS011;12600;53.326;-6.298;2023-11-22T10:47:05;3.88;;;1.80;;
24421;SDS011;12600;53.326;-6.298;2023-11-22T10:49:56;6.25;;;2.40;;
24421;SDS011;12600;53.326;-6.298;2023-11-22T10:52:48;5.78;;;2.00;;
24421;SDS011;12600;53.326;-6.298;2023-11-22T10:55:45;5.07;;;2.10;;
24421;SDS011;12600;53.326;-6.298;2023-11-22T10:58:36;6.38;;;2.78;;
24421;SDS011;12600;53.326;-6.298;2023-11-22T11:01:30;10.32;;;3.30;;
24421;SDS011;12600;53.326;-6.298;2023-11-22T11:04:24;5.53;;;1.85;;
24421;SDS011;12600;53.326;-6.298;2023-11-22T11:07:22;6.75;;;2.88;;
24421;SDS011;12600;53.326;-6.298;2023-11-22T11:10:18;15.10;;;5.65;;
24421;SDS011;12600;53.326;-6.298;2023-11-22T11:13:13;5.60;;;2.17;;
24421;SDS011;12600;53.326;-6.298;2023-11-22T11:16:02;7.35;;;2.13;;
24421;SDS011;12600;53.326;-6.298;2023-11-22T11:18:53;6.43;;;2.97;;
24421;SDS011;12600;53.326;-6.298;2023-11-22T11:21:43;6.30;;;2.42;;
24421;SDS011;12600;53.326;-6.298;2023-11-22T11:24:38;6.53;;;2.20;;
24421;SDS011;12600;53.326;-6.298;2023-11-22T11:27:28;4.43;;;1.98;;
24421;SDS011;12600;53.326;-6.298;2023-11-22T11:33:53;8.48;;;2.70;;
24421;SDS011;12600;53.326;-6.298;2023-11-22T11:36:43;5.05;;;2.30;;
24421;SDS011;12600;53.326;-6.298;2023-11-22T11:39:42;4.53;;;1.60;;
24421;SDS011;12600;53.326;-6.298;2023-11-22T11:42:31;3.53;;;1.70;;
24421;SDS011;12600;53.326;-6.298;2023-11-22T11:45:20;4.15;;;1.90;;
24421;SDS011;12600;53.326;-6.298;2023-11-22T11:48:11;2.47;;;1.38;;
24421;SDS011;12600;53.326;-6.298;2023-11-22T11:51:06;3.17;;;1.60;;
24421;SDS011;12600;53.326;-6.298;2023-11-22T11:53:55;3.03;;;1.48;;
24421;SDS011;12600;53.326;-6.298;2023-11-22T11:56:45;3.33;;;1.50;;
24421;SDS011;12600;53.326;-6.298;2023-11-22T12:02:29;3.20;;;1.98;;
24421;SDS011;12600;53.326;-6.298;2023-11-22T12:05:20;5.70;;;2.25;;
24421;SDS011;12600;53.326;-6.298;2023-11-22T12:08:10;5.15;;;2.08;;
24421;SDS011;12600;53.326;-6.298;2023-11-22T12:11:03;4.65;;;2.00;;
24421;SDS011;12600;53.326;-6.298;2023-11-22T12:13:55;5.83;;;2.40;;
24421;SDS011;12600;53.326;-6.298;2023-11-22T12:16:44;5.30;;;2.13;;
24421;SDS011;12600;53.326;-6.298;2023-11-22T12:19:35;5.03;;;2.25;;
24421;SDS011;12600;53.326;-6.298;2023-11-22T12:22:26;6.90;;;2.15;;
24421;SDS011;12600;53.326;-6.298;2023-11-22T12:25:18;6.57;;;3.33;;
24421;SDS011;12600;53.326;-6.298;2023-11-22T12:28:08;6.60;;;2.78;;
24421;SDS011;12600;53.326;-6.298;2023-11-22T12:31:06;6.07;;;2.33;;
24421;SDS011;12600;53.326;-6.298;2023-11-22T12:33:57;5.65;;;2.70;;
24421;SDS011;12600;53.326;-6.298;2023-11-22T12:36:46;5.30;;;2.92;;
24421;SDS011;12600;53.326;-6.298;2023-11-22T12:39:40;4.53;;;2.70;;
24421;SDS011;12600;53.326;-6.298;2023-11-22T12:42:29;4.18;;;1.92;;
24421;SDS011;12600;53.326;-6.298;2023-11-22T12:45:19;7.95;;;3.80;;
24421;SDS011;12600;53.326;-6.298;2023-11-22T12:48:21;7.40;;;3.80;;
24421;SDS011;12600;53.326;-6.298;2023-11-22T12:51:14;6.10;;;2.85;;
24421;SDS011;12600;53.326;-6.298;2023-11-22T12:54:04;4.57;;;2.60;;
24421;SDS011;12600;53.326;-6.298;2023-11-22T12:56:55;5.22;;;2.20;;
24421;SDS011;12600;53.326;-6.298;2023-11-22T12:59:47;4.18;;;2.08;;
24421;SDS011;12600;53.326;-6.298;2023-11-22T13:02:36;4.70;;;2.00;;
24421;SDS011;12600;53.326;-6.298;2023-11-22T13:05:43;9.60;;;3.13;;
24421;SDS011;12600;53.326;-6.298;2023-11-22T13:08:35;7.30;;;2.70;;
24421;SDS011;12600;53.326;-6.298;2023-11-22T13:11:24;5.70;;;2.72;;
24421;SDS011;12600;53.326;-6.298;2023-11-22T13:14:15;4.65;;;1.80;;
24421;SDS011;12600;53.326;-6.298;2023-11-22T13:17:05;7.35;;;1.80;;
24421;SDS011;12600;53.326;-6.298;2023-11-22T13:19:55;3.58;;;1.92;;
24421;SDS011;12600;53.326;-6.298;2023-11-22T13:22:44;7.93;;;3.25;;
24421;SDS011;12600;53.326;-6.298;2023-11-22T13:25:34;6.90;;;2.30;;
24421;SDS011;12600;53.326;-6.298;2023-11-22T13:28:24;4.13;;;1.70;;
24421;SDS011;12600;53.326;-6.298;2023-11-22T13:31:15;6.80;;;1.90;;
24421;SDS011;12600;53.326;-6.298;2023-11-22T13:34:04;3.55;;;1.48;;
24421;SDS011;12600;53.326;-6.298;2023-11-22T13:36:54;6.38;;;1.90;;
24421;SDS011;12600;53.326;-6.298;2023-11-22T13:39:43;3.70;;;2.33;;
24421;SDS011;12600;53.326;-6.298;2023-11-22T13:42:32;5.20;;;1.85;;
24421;SDS011;12600;53.326;-6.298;2023-11-22T13:45:22;5.60;;;2.10;;
24421;SDS011;12600;53.326;-6.298;2023-11-22T13:48:13;6.57;;;2.10;;
24421;SDS011;12600;53.326;-6.298;2023-11-22T13:51:03;3.85;;;1.98;;
24421;SDS011;12600;53.326;-6.298;2023-11-22T13:53:57;7.65;;;2.58;;
24421;SDS011;12600;53.326;-6.298;2023-11-22T13:56:47;4.85;;;1.73;;
24421;SDS011;12600;53.326;-6.298;2023-11-22T13:59:36;6.10;;;1.80;;
24421;SDS011;12600;53.326;-6.298;2023-11-22T14:02:27;3.63;;;2.22;;
24421;SDS011;12600;53.326;-6.298;2023-11-22T14:05:20;5.60;;;2.75;;
24421;SDS011;12600;53.326;-6.298;2023-11-22T14:08:10;6.45;;;2.72;;
24421;SDS011;12600;53.326;-6.298;2023-11-22T14:11:01;4.93;;;2.47;;
24421;SDS011;12600;53.326;-6.298;2023-11-22T14:13:51;5.80;;;2.70;;
24421;SDS011;12600;53.326;-6.298;2023-11-22T14:16:40;8.25;;;3.05;;
24421;SDS011;12600;53.326;-6.298;2023-11-22T14:19:32;4.97;;;2.72;;
24421;SDS011;12600;53.326;-6.298;2023-11-22T14:22:22;5.03;;;2.20;;
24421;SDS011;12600;53.326;-6.298;2023-11-22T14:25:12;2.55;;;1.67;;
24421;SDS011;12600;53.326;-6.298;2023-11-22T14:28:03;5.60;;;2.28;;
24421;SDS011;12600;53.326;-6.298;2023-11-22T14:30:52;5.22;;;2.50;;
24421;SDS011;12600;53.326;-6.298;2023-11-22T14:33:42;4.63;;;2.08;;
24421;SDS011;12600;53.326;-6.298;2023-11-22T14:36:31;3.63;;;1.55;;
24421;SDS011;12600;53.326;-6.298;2023-11-22T14:39:25;3.57;;;1.67;;
24421;SDS011;12600;53.326;-6.298;2023-11-22T14:42:16;4.13;;;2.00;;
24421;SDS011;12600;53.326;-6.298;2023-11-22T14:45:06;5.45;;;2.30;;
24421;SDS011;12600;53.326;-6.298;2023-11-22T14:47:58;6.10;;;2.38;;
24421;SDS011;12600;53.326;-6.298;2023-11-22T14:50:49;7.88;;;2.55;;
24421;SDS011;12600;53.326;-6.298;2023-11-22T14:53:39;5.68;;;2.58;;
24421;SDS011;12600;53.326;-6.298;2023-11-22T14:56:30;6.57;;;2.53;;
24421;SDS011;12600;53.326;-6.298;2023-11-22T14:59:20;9.25;;;3.33;;
24421;SDS011;12600;53.326;-6.298;2023-11-22T15:02:10;7.63;;;3.35;;
24421;SDS011;12600;53.326;-6.298;2023-11-22T15:04:59;8.43;;;4.13;;
24421;SDS011;12600;53.326;-6.298;2023-11-22T15:07:48;8.20;;;3.58;;
24421;SDS011;12600;53.326;-6.298;2023-11-22T15:10:42;8.23;;;3.65;;
24421;SDS011;12600;53.326;-6.298;2023-11-22T15:13:33;9.32;;;4.85;;
24421;SDS011;12600;53.326;-6.298;2023-11-22T15:16:23;8.15;;;4.10;;
24421;SDS011;12600;53.326;-6.298;2023-11-22T15:19:13;8.05;;;3.70;;
24421;SDS011;12600;53.326;-6.298;2023-11-22T15:22:04;6.57;;;3.50;;
24421;SDS011;12600;53.326;-6.298;2023-11-22T15:24:53;9.00;;;4.57;;
24421;SDS011;12600;53.326;-6.298;2023-11-22T15:27:43;5.68;;;3.25;;
24421;SDS011;12600;53.326;-6.298;2023-11-22T15:30:34;7.60;;;4.05;;
24421;SDS011;12600;53.326;-6.298;2023-11-22T15:33:23;7.85;;;3.40;;
24421;SDS011;12600;53.326;-6.298;2023-11-22T15:36:13;14.25;;;5.38;;
24421;SDS011;12600;53.326;-6.298;2023-11-22T15:39:03;7.25;;;2.90;;
24421;SDS011;12600;53.326;-6.298;2023-11-22T15:41:53;6.43;;;2.95;;
24421;SDS011;12600;53.326;-6.298;2023-11-22T15:44:42;16.05;;;7.85;;
24421;SDS011;12600;53.326;-6.298;2023-11-22T15:47:33;10.23;;;4.20;;
24421;SDS011;12600;53.326;-6.298;2023-11-22T15:53:14;11.88;;;4.13;;
24421;SDS011;12600;53.326;-6.298;2023-11-22T15:56:04;14.88;;;5.28;;
24421;SDS011;12600;53.326;-6.298;2023-11-22T15:58:55;9.45;;;3.67;;
24421;SDS011;12600;53.326;-6.298;2023-11-22T16:01:46;15.23;;;6.15;;
24421;SDS011;12600;53.326;-6.298;2023-11-22T16:04:37;15.02;;;5.20;;
24421;SDS011;12600;53.326;-6.298;2023-11-22T16:07:27;9.00;;;4.47;;
24421;SDS011;12600;53.326;-6.298;2023-11-22T16:10:16;12.00;;;5.05;;
24421;SDS011;12600;53.326;-6.298;2023-11-22T16:13:07;7.07;;;3.20;;
24421;SDS011;12600;53.326;-6.298;2023-11-22T16:15:56;11.45;;;4.47;;
24421;SDS011;12600;53.326;-6.298;2023-11-22T16:18:47;12.05;;;4.80;;
24421;SDS011;12600;53.326;-6.298;2023-11-22T16:21:38;13.55;;;4.97;;
24421;SDS011;12600;53.326;-6.298;2023-11-22T16:24:27;16.85;;;6.00;;
24421;SDS011;12600;53.326;-6.298;2023-11-22T16:27:17;11.23;;;5.10;;
24421;SDS011;12600;53.326;-6.298;2023-11-22T16:30:06;19.02;;;6.32;;
24421;SDS011;12600;53.326;-6.298;2023-11-22T16:32:56;16.33;;;6.85;;
24421;SDS011;12600;53.326;-6.298;2023-11-22T16:35:46;12.32;;;6.38;;
24421;SDS011;12600;53.326;-6.298;2023-11-22T16:38:37;10.40;;;4.35;;
24421;SDS011;12600;53.326;-6.298;2023-11-22T16:41:27;18.17;;;7.20;;
24421;SDS011;12600;53.326;-6.298;2023-11-22T16:44:16;14.50;;;6.22;;
24421;SDS011;12600;53.326;-6.298;2023-11-22T16:47:06;11.23;;;5.78;;
24421;SDS011;12600;53.326;-6.298;2023-11-22T16:49:55;14.02;;;6.72;;
24421;SDS011;12600;53.326;-6.298;2023-11-22T16:52:45;15.35;;;5.43;;
24421;SDS011;12600;53.326;-6.298;2023-11-22T16:55:35;16.63;;;6.28;;
24421;SDS011;12600;53.326;-6.298;2023-11-22T16:58:25;12.18;;;6.50;;
24421;SDS011;12600;53.326;-6.298;2023-11-22T17:01:15;13.73;;;6.30;;